sensor_id;sensor_type;location;lat;lon;timestamp;P1;durP1;ratioP1;P2;durP2;ratioP2
11443;SDS011;5778;47.856;12.154;2022-09-09T00:00:12;2.80;;;1.17;;
11443;SDS011;5778;47.856;12.154;2022-09-09T00:02:40;2.03;;;1.10;;
11443;SDS011;5778;47.856;12.154;2022-09-09T00:05:14;0.97;;;0.90;;
11443;SDS011;5778;47.856;12.154;2022-09-09T00:07:52;1.13;;;1.00;;
11443;SDS011;5778;47.856;12.154;2022-09-09T00:10:25;1.10;;;1.00;;
11443;SDS011;5778;47.856;12.154;2022-09-09T00:12:57;1.37;;;1.10;;
11443;SDS011;5778;47.856;12.154;2022-09-09T00:15:45;1.10;;;1.10;;
11443;SDS011;5778;47.856;12.154;2022-09-09T00:18:23;1.20;;;0.80;;
11443;SDS011;5778;47.856;12.154;2022-09-09T00:20:58;0.90;;;0.90;;
11443;SDS011;5778;47.856;12.154;2022-09-09T00:23:30;1.20;;;1.10;;
11443;SDS011;5778;47.856;12.154;2022-09-09T00:28:58;1.20;;;0.90;;
11443;SDS011;5778;47.856;12.154;2022-09-09T00:31:31;0.87;;;0.87;;
11443;SDS011;5778;47.856;12.154;2022-09-09T00:34:00;1.00;;;1.00;;
11443;SDS011;5778;47.856;12.154;2022-09-09T00:39:27;1.00;;;1.00;;
11443;SDS011;5778;47.856;12.154;2022-09-09T00:42:04;2.50;;;1.10;;
11443;SDS011;5778;47.856;12.154;2022-09-09T00:44:45;1.93;;;1.10;;
11443;SDS011;5778;47.856;12.154;2022-09-09T00:47:24;1.90;;;0.97;;
11443;SDS011;5778;47.856;12.154;2022-09-09T00:53:29;1.53;;;1.00;;
11443;SDS011;5778;47.856;12.154;2022-09-09T00:56:18;0.70;;;0.70;;
11443;SDS011;5778;47.856;12.154;2022-09-09T00:58:52;0.87;;;0.87;;
11443;SDS011;5778;47.856;12.154;2022-09-09T01:01:27;1.00;;;1.00;;
11443;SDS011;5778;47.856;12.154;2022-09-09T01:03:54;1.80;;;1.10;;
11443;SDS011;5778;47.856;12.154;2022-09-09T01:09:22;1.47;;;1.00;;
11443;SDS011;5778;47.856;12.154;2022-09-09T01:11:55;1.23;;;0.90;;
11443;SDS011;5778;47.856;12.154;2022-09-09T01:14:35;3.17;;;0.90;;
11443;SDS011;5778;47.856;12.154;2022-09-09T01:17:09;0.90;;;0.90;;
11443;SDS011;5778;47.856;12.154;2022-09-09T01:19:55;3.10;;;0.90;;
11443;SDS011;5778;47.856;12.154;2022-09-09T01:22:37;0.80;;;0.80;;
11443;SDS011;5778;47.856;12.154;2022-09-09T01:25:15;0.90;;;0.80;;
11443;SDS011;5778;47.856;12.154;2022-09-09T01:28:00;0.83;;;0.70;;
11443;SDS011;5778;47.856;12.154;2022-09-09T01:30:31;1.57;;;0.70;;
11443;SDS011;5778;47.856;12.154;2022-09-09T01:33:00;1.87;;;0.70;;
11443;SDS011;5778;47.856;12.154;2022-09-09T01:35:45;1.83;;;0.77;;
11443;SDS011;5778;47.856;12.154;2022-09-09T01:38:20;0.67;;;0.60;;
11443;SDS011;5778;47.856;12.154;2022-09-09T01:40:50;0.70;;;0.70;;
11443;SDS011;5778;47.856;12.154;2022-09-09T01:43:25;0.97;;;0.57;;
11443;SDS011;5778;47.856;12.154;2022-09-09T01:49:11;0.67;;;0.67;;
11443;SDS011;5778;47.856;12.154;2022-09-09T01:51:38;2.90;;;0.80;;
11443;SDS011;5778;47.856;12.154;2022-09-09T01:54:12;1.03;;;0.83;;
11443;SDS011;5778;47.856;12.154;2022-09-09T01:56:47;1.77;;;0.80;;
11443;SDS011;5778;47.856;12.154;2022-09-09T01:59:32;2.73;;;0.70;;
11443;SDS011;5778;47.856;12.154;2022-09-09T02:02:24;2.57;;;0.80;;
11443;SDS011;5778;47.856;12.154;2022-09-09T02:05:09;0.73;;;0.73;;
11443;SDS011;5778;47.856;12.154;2022-09-09T02:07:46;1.93;;;0.97;;
11443;SDS011;5778;47.856;12.154;2022-09-09T02:10:27;1.43;;;0.83;;
11443;SDS011;5778;47.856;12.154;2022-09-09T02:13:10;1.70;;;0.80;;
11443;SDS011;5778;47.856;12.154;2022-09-09T02:15:43;0.73;;;0.73;;
11443;SDS011;5778;47.856;12.154;2022-09-09T02:18:15;1.00;;;1.00;;
11443;SDS011;5778;47.856;12.154;2022-09-09T02:24:05;0.90;;;0.90;;
11443;SDS011;5778;47.856;12.154;2022-09-09T02:26:41;0.70;;;0.70;;
11443;SDS011;5778;47.856;12.154;2022-09-09T02:29:14;1.00;;;0.70;;
11443;SDS011;5778;47.856;12.154;2022-09-09T02:31:47;1.53;;;0.83;;
11443;SDS011;5778;47.856;12.154;2022-09-09T02:34:21;1.30;;;0.90;;
11443;SDS011;5778;47.856;12.154;2022-09-09T02:36:50;1.53;;;0.80;;
11443;SDS011;5778;47.856;12.154;2022-09-09T02:39:21;0.70;;;0.70;;
11443;SDS011;5778;47.856;12.154;2022-09-09T02:41:49;1.27;;;0.90;;
11443;SDS011;5778;47.856;12.154;2022-09-09T02:44:17;1.77;;;0.80;;
11443;SDS011;5778;47.856;12.154;2022-09-09T02:47:07;0.90;;;0.90;;
11443;SDS011;5778;47.856;12.154;2022-09-09T02:49:47;0.90;;;0.90;;
11443;SDS011;5778;47.856;12.154;2022-09-09T02:52:25;1.53;;;0.87;;
11443;SDS011;5778;47.856;12.154;2022-09-09T02:54:57;3.80;;;0.90;;
11443;SDS011;5778;47.856;12.154;2022-09-09T02:57:39;1.97;;;0.97;;
11443;SDS011;5778;47.856;12.154;2022-09-09T03:00:08;1.70;;;0.80;;
11443;SDS011;5778;47.856;12.154;2022-09-09T03:02:38;0.90;;;0.90;;
11443;SDS011;5778;47.856;12.154;2022-09-09T03:05:06;1.67;;;0.80;;
11443;SDS011;5778;47.856;12.154;2022-09-09T03:07:34;1.37;;;0.83;;
11443;SDS011;5778;47.856;12.154;2022-09-09T03:10:01;1.50;;;1.00;;
11443;SDS011;5778;47.856;12.154;2022-09-09T03:12:28;0.80;;;0.80;;
11443;SDS011;5778;47.856;12.154;2022-09-09T03:14:55;0.80;;;0.80;;
11443;SDS011;5778;47.856;12.154;2022-09-09T03:17:23;0.93;;;0.80;;
11443;SDS011;5778;47.856;12.154;2022-09-09T03:19:54;1.87;;;0.83;;
11443;SDS011;5778;47.856;12.154;2022-09-09T03:22:24;1.10;;;1.00;;
11443;SDS011;5778;47.856;12.154;2022-09-09T03:24:53;1.90;;;0.90;;
11443;SDS011;5778;47.856;12.154;2022-09-09T03:27:25;1.20;;;1.10;;
11443;SDS011;5778;47.856;12.154;2022-09-09T03:29:52;1.37;;;0.90;;
11443;SDS011;5778;47.856;12.154;2022-09-09T03:32:22;0.93;;;0.87;;
11443;SDS011;5778;47.856;12.154;2022-09-09T03:34:51;0.93;;;0.93;;
11443;SDS011;5778;47.856;12.154;2022-09-09T03:37:20;1.73;;;1.00;;
11443;SDS011;5778;47.856;12.154;2022-09-09T03:39:49;1.90;;;1.20;;
11443;SDS011;5778;47.856;12.154;2022-09-09T03:42:17;1.73;;;0.90;;
11443;SDS011;5778;47.856;12.154;2022-09-09T03:44:48;2.97;;;1.03;;
11443;SDS011;5778;47.856;12.154;2022-09-09T03:50:49;1.13;;;0.90;;
11443;SDS011;5778;47.856;12.154;2022-09-09T03:53:20;1.80;;;0.97;;
11443;SDS011;5778;47.856;12.154;2022-09-09T03:55:50;0.87;;;0.87;;
11443;SDS011;5778;47.856;12.154;2022-09-09T03:58:20;1.83;;;0.90;;
11443;SDS011;5778;47.856;12.154;2022-09-09T04:00:54;1.23;;;0.90;;
11443;SDS011;5778;47.856;12.154;2022-09-09T04:03:22;1.17;;;1.00;;
11443;SDS011;5778;47.856;12.154;2022-09-09T04:06:00;0.97;;;0.90;;
11443;SDS011;5778;47.856;12.154;2022-09-09T04:08:31;1.27;;;0.80;;
11443;SDS011;5778;47.856;12.154;2022-09-09T04:10:58;1.10;;;0.90;;
11443;SDS011;5778;47.856;12.154;2022-09-09T04:13:27;1.27;;;0.80;;
11443;SDS011;5778;47.856;12.154;2022-09-09T04:16:13;0.93;;;0.83;;
11443;SDS011;5778;47.856;12.154;2022-09-09T04:18:42;4.47;;;0.90;;
11443;SDS011;5778;47.856;12.154;2022-09-09T04:21:10;1.30;;;1.20;;
11443;SDS011;5778;47.856;12.154;2022-09-09T04:23:39;1.03;;;1.03;;
11443;SDS011;5778;47.856;12.154;2022-09-09T04:29:27;1.50;;;0.93;;
11443;SDS011;5778;47.856;12.154;2022-09-09T04:31:54;2.27;;;1.00;;
11443;SDS011;5778;47.856;12.154;2022-09-09T04:34:21;0.70;;;0.70;;
11443;SDS011;5778;47.856;12.154;2022-09-09T04:37:00;0.90;;;0.90;;
11443;SDS011;5778;47.856;12.154;2022-09-09T04:39:29;1.40;;;1.30;;
11443;SDS011;5778;47.856;12.154;2022-09-09T04:41:59;1.17;;;1.10;;
11443;SDS011;5778;47.856;12.154;2022-09-09T04:44:27;0.90;;;0.90;;
11443;SDS011;5778;47.856;12.154;2022-09-09T04:47:03;1.57;;;0.80;;
11443;SDS011;5778;47.856;12.154;2022-09-09T04:49:41;1.90;;;0.90;;
11443;SDS011;5778;47.856;12.154;2022-09-09T04:52:09;2.60;;;1.13;;
11443;SDS011;5778;47.856;12.154;2022-09-09T04:54:39;1.53;;;0.83;;
11443;SDS011;5778;47.856;12.154;2022-09-09T04:57:11;0.90;;;0.90;;
11443;SDS011;5778;47.856;12.154;2022-09-09T04:59:38;3.03;;;0.87;;
11443;SDS011;5778;47.856;12.154;2022-09-09T05:02:06;1.47;;;1.00;;
11443;SDS011;5778;47.856;12.154;2022-09-09T05:04:33;1.80;;;0.97;;
11443;SDS011;5778;47.856;12.154;2022-09-09T05:10:01;2.03;;;1.03;;
11443;SDS011;5778;47.856;12.154;2022-09-09T05:12:31;0.90;;;0.90;;
11443;SDS011;5778;47.856;12.154;2022-09-09T05:14:59;1.80;;;1.17;;
11443;SDS011;5778;47.856;12.154;2022-09-09T05:17:33;1.63;;;1.30;;
11443;SDS011;5778;47.856;12.154;2022-09-09T05:20:06;1.30;;;1.30;;
11443;SDS011;5778;47.856;12.154;2022-09-09T05:22:34;2.87;;;2.57;;
11443;SDS011;5778;47.856;12.154;2022-09-09T05:25:03;2.13;;;1.93;;
11443;SDS011;5778;47.856;12.154;2022-09-09T05:30:21;4.00;;;3.70;;
11443;SDS011;5778;47.856;12.154;2022-09-09T05:32:51;5.27;;;3.53;;
11443;SDS011;5778;47.856;12.154;2022-09-09T05:35:18;3.80;;;2.17;;
11443;SDS011;5778;47.856;12.154;2022-09-09T05:37:45;1.47;;;1.20;;
11443;SDS011;5778;47.856;12.154;2022-09-09T05:40:14;1.50;;;1.20;;
11443;SDS011;5778;47.856;12.154;2022-09-09T05:42:42;2.30;;;1.10;;
11443;SDS011;5778;47.856;12.154;2022-09-09T05:45:09;2.23;;;1.00;;
11443;SDS011;5778;47.856;12.154;2022-09-09T05:47:38;4.47;;;1.30;;
11443;SDS011;5778;47.856;12.154;2022-09-09T05:50:08;1.23;;;1.10;;
11443;SDS011;5778;47.856;12.154;2022-09-09T05:52:36;1.70;;;0.90;;
11443;SDS011;5778;47.856;12.154;2022-09-09T05:55:05;2.07;;;0.93;;
11443;SDS011;5778;47.856;12.154;2022-09-09T05:57:40;1.80;;;1.37;;
11443;SDS011;5778;47.856;12.154;2022-09-09T06:00:08;1.23;;;0.90;;
11443;SDS011;5778;47.856;12.154;2022-09-09T06:02:40;0.93;;;0.90;;
11443;SDS011;5778;47.856;12.154;2022-09-09T06:05:09;2.47;;;1.20;;
11443;SDS011;5778;47.856;12.154;2022-09-09T06:10:27;1.10;;;1.00;;
11443;SDS011;5778;47.856;12.154;2022-09-09T06:12:55;2.17;;;1.30;;
11443;SDS011;5778;47.856;12.154;2022-09-09T06:15:30;1.20;;;0.97;;
11443;SDS011;5778;47.856;12.154;2022-09-09T06:17:57;1.97;;;1.20;;
11443;SDS011;5778;47.856;12.154;2022-09-09T06:20:34;2.37;;;1.30;;
11443;SDS011;5778;47.856;12.154;2022-09-09T06:23:03;3.63;;;1.00;;
11443;SDS011;5778;47.856;12.154;2022-09-09T06:25:37;1.27;;;1.17;;
11443;SDS011;5778;47.856;12.154;2022-09-09T06:28:08;2.03;;;1.00;;
11443;SDS011;5778;47.856;12.154;2022-09-09T06:30:35;1.10;;;1.00;;
11443;SDS011;5778;47.856;12.154;2022-09-09T06:33:02;3.07;;;1.20;;
11443;SDS011;5778;47.856;12.154;2022-09-09T06:38:20;1.03;;;1.00;;
11443;SDS011;5778;47.856;12.154;2022-09-09T06:40:50;3.00;;;0.87;;
11443;SDS011;5778;47.856;12.154;2022-09-09T06:43:20;2.80;;;0.80;;
11443;SDS011;5778;47.856;12.154;2022-09-09T06:45:54;1.53;;;1.00;;
11443;SDS011;5778;47.856;12.154;2022-09-09T06:48:22;1.13;;;0.90;;
11443;SDS011;5778;47.856;12.154;2022-09-09T06:53:40;1.10;;;0.83;;
11443;SDS011;5778;47.856;12.154;2022-09-09T06:59:13;1.33;;;0.80;;
11443;SDS011;5778;47.856;12.154;2022-09-09T07:01:40;2.63;;;0.90;;
11443;SDS011;5778;47.856;12.154;2022-09-09T07:04:12;2.37;;;0.90;;
11443;SDS011;5778;47.856;12.154;2022-09-09T07:06:43;2.00;;;0.90;;
11443;SDS011;5778;47.856;12.154;2022-09-09T07:09:15;1.13;;;0.90;;
11443;SDS011;5778;47.856;12.154;2022-09-09T07:11:47;1.17;;;0.77;;
11443;SDS011;5778;47.856;12.154;2022-09-09T07:14:19;3.03;;;0.77;;
11443;SDS011;5778;47.856;12.154;2022-09-09T07:19:55;1.27;;;0.77;;
11443;SDS011;5778;47.856;12.154;2022-09-09T07:22:23;0.90;;;0.90;;
11443;SDS011;5778;47.856;12.154;2022-09-09T07:24:51;0.80;;;0.80;;
11443;SDS011;5778;47.856;12.154;2022-09-09T07:27:18;1.03;;;0.93;;
11443;SDS011;5778;47.856;12.154;2022-09-09T07:29:48;2.93;;;0.97;;
11443;SDS011;5778;47.856;12.154;2022-09-09T07:32:16;0.90;;;0.70;;
11443;SDS011;5778;47.856;12.154;2022-09-09T07:34:45;1.97;;;0.77;;
11443;SDS011;5778;47.856;12.154;2022-09-09T07:40:03;1.40;;;1.30;;
11443;SDS011;5778;47.856;12.154;2022-09-09T07:42:31;1.33;;;1.00;;
11443;SDS011;5778;47.856;12.154;2022-09-09T07:45:00;2.47;;;1.20;;
11443;SDS011;5778;47.856;12.154;2022-09-09T07:47:32;2.23;;;1.10;;
11443;SDS011;5778;47.856;12.154;2022-09-09T07:53:23;1.40;;;1.00;;
11443;SDS011;5778;47.856;12.154;2022-09-09T07:59:02;1.80;;;0.93;;
11443;SDS011;5778;47.856;12.154;2022-09-09T08:01:35;1.00;;;1.00;;
11443;SDS011;5778;47.856;12.154;2022-09-09T08:04:06;1.13;;;1.03;;
11443;SDS011;5778;47.856;12.154;2022-09-09T08:06:39;1.10;;;1.00;;
11443;SDS011;5778;47.856;12.154;2022-09-09T08:09:09;1.83;;;1.17;;
11443;SDS011;5778;47.856;12.154;2022-09-09T08:11:38;1.73;;;1.50;;
11443;SDS011;5778;47.856;12.154;2022-09-09T08:14:06;1.13;;;1.03;;
11443;SDS011;5778;47.856;12.154;2022-09-09T08:16:39;1.47;;;0.90;;
11443;SDS011;5778;47.856;12.154;2022-09-09T08:19:11;0.70;;;0.70;;
11443;SDS011;5778;47.856;12.154;2022-09-09T08:21:41;1.53;;;0.70;;
11443;SDS011;5778;47.856;12.154;2022-09-09T08:24:11;1.10;;;0.77;;
11443;SDS011;5778;47.856;12.154;2022-09-09T08:26:46;1.60;;;0.70;;
11443;SDS011;5778;47.856;12.154;2022-09-09T08:29:17;2.17;;;0.90;;
11443;SDS011;5778;47.856;12.154;2022-09-09T08:31:48;3.17;;;0.90;;
11443;SDS011;5778;47.856;12.154;2022-09-09T08:34:17;0.80;;;0.80;;
11443;SDS011;5778;47.856;12.154;2022-09-09T08:36:55;0.67;;;0.60;;
11443;SDS011;5778;47.856;12.154;2022-09-09T08:39:29;0.80;;;0.67;;
11443;SDS011;5778;47.856;12.154;2022-09-09T08:42:13;2.53;;;0.80;;
11443;SDS011;5778;47.856;12.154;2022-09-09T08:45:01;0.87;;;0.80;;
11443;SDS011;5778;47.856;12.154;2022-09-09T08:47:45;1.77;;;1.00;;
11443;SDS011;5778;47.856;12.154;2022-09-09T08:50:34;1.83;;;1.20;;
11443;SDS011;5778;47.856;12.154;2022-09-09T08:53:14;1.57;;;1.40;;
11443;SDS011;5778;47.856;12.154;2022-09-09T08:55:49;1.97;;;1.10;;
11443;SDS011;5778;47.856;12.154;2022-09-09T08:58:24;0.90;;;0.90;;
11443;SDS011;5778;47.856;12.154;2022-09-09T09:03:57;2.27;;;0.93;;
11443;SDS011;5778;47.856;12.154;2022-09-09T09:06:40;1.70;;;1.03;;
11443;SDS011;5778;47.856;12.154;2022-09-09T09:09:18;1.87;;;0.87;;
11443;SDS011;5778;47.856;12.154;2022-09-09T09:11:53;1.80;;;1.00;;
11443;SDS011;5778;47.856;12.154;2022-09-09T09:14:28;1.30;;;0.93;;
11443;SDS011;5778;47.856;12.154;2022-09-09T09:17:16;0.90;;;0.77;;
11443;SDS011;5778;47.856;12.154;2022-09-09T09:23:16;1.67;;;0.90;;
11443;SDS011;5778;47.856;12.154;2022-09-09T09:28:52;1.80;;;0.90;;
11443;SDS011;5778;47.856;12.154;2022-09-09T09:31:22;1.37;;;0.80;;
11443;SDS011;5778;47.856;12.154;2022-09-09T09:33:53;0.80;;;0.80;;
11443;SDS011;5778;47.856;12.154;2022-09-09T09:36:24;1.10;;;0.90;;
11443;SDS011;5778;47.856;12.154;2022-09-09T09:39:03;1.23;;;0.90;;
11443;SDS011;5778;47.856;12.154;2022-09-09T09:41:33;0.97;;;0.90;;
11443;SDS011;5778;47.856;12.154;2022-09-09T09:44:04;1.97;;;0.80;;
11443;SDS011;5778;47.856;12.154;2022-09-09T09:46:41;0.90;;;0.90;;
11443;SDS011;5778;47.856;12.154;2022-09-09T09:52:19;1.27;;;0.80;;
11443;SDS011;5778;47.856;12.154;2022-09-09T09:54:51;1.37;;;1.00;;
11443;SDS011;5778;47.856;12.154;2022-09-09T09:57:38;0.80;;;0.80;;
11443;SDS011;5778;47.856;12.154;2022-09-09T10:00:13;1.00;;;0.90;;
11443;SDS011;5778;47.856;12.154;2022-09-09T10:02:45;1.37;;;1.20;;
11443;SDS011;5778;47.856;12.154;2022-09-09T10:05:19;1.73;;;0.80;;
11443;SDS011;5778;47.856;12.154;2022-09-09T10:08:00;0.90;;;0.90;;
11443;SDS011;5778;47.856;12.154;2022-09-09T10:10:33;1.87;;;0.90;;
11443;SDS011;5778;47.856;12.154;2022-09-09T10:13:09;1.17;;;1.00;;
11443;SDS011;5778;47.856;12.154;2022-09-09T10:15:44;1.13;;;0.90;;
11443;SDS011;5778;47.856;12.154;2022-09-09T10:18:34;2.07;;;1.20;;
11443;SDS011;5778;47.856;12.154;2022-09-09T10:21:09;2.03;;;1.33;;
11443;SDS011;5778;47.856;12.154;2022-09-09T10:23:52;1.47;;;1.13;;
11443;SDS011;5778;47.856;12.154;2022-09-09T10:26:48;1.37;;;1.20;;
11443;SDS011;5778;47.856;12.154;2022-09-09T10:32:24;2.23;;;1.70;;
11443;SDS011;5778;47.856;12.154;2022-09-09T10:35:02;2.27;;;1.40;;
11443;SDS011;5778;47.856;12.154;2022-09-09T10:37:54;2.20;;;1.77;;
11443;SDS011;5778;47.856;12.154;2022-09-09T10:40:32;2.73;;;1.60;;
11443;SDS011;5778;47.856;12.154;2022-09-09T10:43:12;4.20;;;1.40;;
11443;SDS011;5778;47.856;12.154;2022-09-09T10:45:54;2.27;;;1.50;;
11443;SDS011;5778;47.856;12.154;2022-09-09T10:48:34;2.00;;;1.80;;
11443;SDS011;5778;47.856;12.154;2022-09-09T10:51:17;1.93;;;1.60;;
11443;SDS011;5778;47.856;12.154;2022-09-09T10:54:01;3.50;;;1.77;;
11443;SDS011;5778;47.856;12.154;2022-09-09T10:56:48;2.53;;;1.70;;
11443;SDS011;5778;47.856;12.154;2022-09-09T10:59:24;1.83;;;1.73;;
11443;SDS011;5778;47.856;12.154;2022-09-09T11:01:55;4.20;;;1.83;;
11443;SDS011;5778;47.856;12.154;2022-09-09T11:04:29;3.90;;;2.03;;
11443;SDS011;5778;47.856;12.154;2022-09-09T11:07:20;3.10;;;1.73;;
11443;SDS011;5778;47.856;12.154;2022-09-09T11:09:55;1.60;;;1.50;;
11443;SDS011;5778;47.856;12.154;2022-09-09T11:12:26;1.60;;;1.50;;
11443;SDS011;5778;47.856;12.154;2022-09-09T11:14:57;1.63;;;1.40;;
11443;SDS011;5778;47.856;12.154;2022-09-09T11:20:43;2.00;;;1.63;;
11443;SDS011;5778;47.856;12.154;2022-09-09T11:23:15;1.50;;;1.30;;
11443;SDS011;5778;47.856;12.154;2022-09-09T11:25:53;3.20;;;1.73;;
11443;SDS011;5778;47.856;12.154;2022-09-09T11:28:26;6.03;;;1.80;;
11443;SDS011;5778;47.856;12.154;2022-09-09T11:31:07;1.77;;;1.67;;
11443;SDS011;5778;47.856;12.154;2022-09-09T11:36:52;2.47;;;1.90;;
11443;SDS011;5778;47.856;12.154;2022-09-09T11:42:23;9.13;;;2.30;;
11443;SDS011;5778;47.856;12.154;2022-09-09T11:44:51;1.73;;;1.40;;
11443;SDS011;5778;47.856;12.154;2022-09-09T11:47:25;3.57;;;1.83;;
11443;SDS011;5778;47.856;12.154;2022-09-09T11:50:09;6.23;;;2.20;;
11443;SDS011;5778;47.856;12.154;2022-09-09T11:52:38;2.47;;;1.63;;
11443;SDS011;5778;47.856;12.154;2022-09-09T11:55:08;3.33;;;1.93;;
11443;SDS011;5778;47.856;12.154;2022-09-09T11:57:37;4.13;;;1.67;;
11443;SDS011;5778;47.856;12.154;2022-09-09T12:00:05;2.27;;;1.83;;
11443;SDS011;5778;47.856;12.154;2022-09-09T12:02:47;1.50;;;1.40;;
11443;SDS011;5778;47.856;12.154;2022-09-09T12:05:16;1.67;;;1.37;;
11443;SDS011;5778;47.856;12.154;2022-09-09T12:07:47;3.00;;;1.83;;
11443;SDS011;5778;47.856;12.154;2022-09-09T12:10:20;2.60;;;1.60;;
11443;SDS011;5778;47.856;12.154;2022-09-09T12:12:52;2.00;;;1.57;;
11443;SDS011;5778;47.856;12.154;2022-09-09T12:15:24;4.40;;;1.80;;
11443;SDS011;5778;47.856;12.154;2022-09-09T12:17:56;5.20;;;2.07;;
11443;SDS011;5778;47.856;12.154;2022-09-09T12:23:30;2.93;;;1.80;;
11443;SDS011;5778;47.856;12.154;2022-09-09T12:29:01;1.60;;;1.50;;
11443;SDS011;5778;47.856;12.154;2022-09-09T12:31:39;2.40;;;1.53;;
11443;SDS011;5778;47.856;12.154;2022-09-09T12:34:13;3.17;;;1.33;;
11443;SDS011;5778;47.856;12.154;2022-09-09T12:39:44;2.80;;;1.57;;
11443;SDS011;5778;47.856;12.154;2022-09-09T12:42:18;1.93;;;1.33;;
11443;SDS011;5778;47.856;12.154;2022-09-09T12:44:56;1.47;;;1.00;;
11443;SDS011;5778;47.856;12.154;2022-09-09T12:53:46;1.70;;;1.20;;
11443;SDS011;5778;47.856;12.154;2022-09-09T12:56:18;2.43;;;1.00;;
11443;SDS011;5778;47.856;12.154;2022-09-09T12:58:48;2.33;;;1.03;;
11443;SDS011;5778;47.856;12.154;2022-09-09T13:01:22;1.83;;;1.10;;
11443;SDS011;5778;47.856;12.154;2022-09-09T13:03:50;1.20;;;1.00;;
11443;SDS011;5778;47.856;12.154;2022-09-09T13:09:38;1.30;;;1.20;;
11443;SDS011;5778;47.856;12.154;2022-09-09T13:12:06;3.93;;;1.70;;
11443;SDS011;5778;47.856;12.154;2022-09-09T13:14:42;3.50;;;1.50;;
11443;SDS011;5778;47.856;12.154;2022-09-09T13:17:23;3.10;;;1.67;;
11443;SDS011;5778;47.856;12.154;2022-09-09T13:20:04;2.73;;;1.40;;
11443;SDS011;5778;47.856;12.154;2022-09-09T13:22:33;3.07;;;1.63;;
11443;SDS011;5778;47.856;12.154;2022-09-09T13:25:04;2.13;;;1.80;;
11443;SDS011;5778;47.856;12.154;2022-09-09T13:27:34;3.27;;;1.90;;
11443;SDS011;5778;47.856;12.154;2022-09-09T13:30:19;2.67;;;1.57;;
11443;SDS011;5778;47.856;12.154;2022-09-09T13:32:59;3.37;;;1.60;;
11443;SDS011;5778;47.856;12.154;2022-09-09T13:38:30;2.60;;;1.60;;
11443;SDS011;5778;47.856;12.154;2022-09-09T13:41:02;3.17;;;1.37;;
11443;SDS011;5778;47.856;12.154;2022-09-09T13:43:31;2.93;;;1.63;;
11443;SDS011;5778;47.856;12.154;2022-09-09T13:46:04;4.23;;;1.60;;
11443;SDS011;5778;47.856;12.154;2022-09-09T13:48:32;2.57;;;1.90;;
11443;SDS011;5778;47.856;12.154;2022-09-09T13:51:01;1.60;;;1.47;;
11443;SDS011;5778;47.856;12.154;2022-09-09T13:53:30;3.33;;;1.60;;
11443;SDS011;5778;47.856;12.154;2022-09-09T13:59:21;2.80;;;1.20;;
11443;SDS011;5778;47.856;12.154;2022-09-09T14:01:49;1.73;;;1.37;;
11443;SDS011;5778;47.856;12.154;2022-09-09T14:04:17;1.30;;;1.20;;
11443;SDS011;5778;47.856;12.154;2022-09-09T14:09:46;1.33;;;1.07;;
11443;SDS011;5778;47.856;12.154;2022-09-09T14:12:15;1.47;;;1.00;;
11443;SDS011;5778;47.856;12.154;2022-09-09T14:14:45;1.17;;;0.90;;
11443;SDS011;5778;47.856;12.154;2022-09-09T14:17:29;2.60;;;1.10;;
11443;SDS011;5778;47.856;12.154;2022-09-09T14:20:02;1.43;;;0.80;;
11443;SDS011;5778;47.856;12.154;2022-09-09T14:22:32;1.33;;;0.90;;
11443;SDS011;5778;47.856;12.154;2022-09-09T14:25:00;1.37;;;1.27;;
11443;SDS011;5778;47.856;12.154;2022-09-09T14:27:32;0.67;;;0.67;;
11443;SDS011;5778;47.856;12.154;2022-09-09T14:30:01;0.97;;;0.83;;
11443;SDS011;5778;47.856;12.154;2022-09-09T14:32:27;2.07;;;1.00;;
11443;SDS011;5778;47.856;12.154;2022-09-09T14:34:54;0.83;;;0.60;;
11443;SDS011;5778;47.856;12.154;2022-09-09T14:37:32;0.63;;;0.63;;
11443;SDS011;5778;47.856;12.154;2022-09-09T14:39:59;2.37;;;1.20;;
11443;SDS011;5778;47.856;12.154;2022-09-09T14:42:26;0.87;;;0.70;;
11443;SDS011;5778;47.856;12.154;2022-09-09T14:44:55;0.80;;;0.80;;
11443;SDS011;5778;47.856;12.154;2022-09-09T14:49:34;4.70;;;1.03;;
11443;SDS011;5778;47.856;12.154;2022-09-09T14:52:02;0.50;;;0.50;;
11443;SDS011;5778;47.856;12.154;2022-09-09T14:54:30;0.80;;;0.80;;
11443;SDS011;5778;47.856;12.154;2022-09-09T14:56:58;1.47;;;0.70;;
11443;SDS011;5778;47.856;12.154;2022-09-09T14:59:25;0.63;;;0.50;;
11443;SDS011;5778;47.856;12.154;2022-09-09T15:01:52;0.77;;;0.50;;
11443;SDS011;5778;47.856;12.154;2022-09-09T15:04:19;0.50;;;0.50;;
11443;SDS011;5778;47.856;12.154;2022-09-09T15:07:02;1.60;;;0.67;;
11443;SDS011;5778;47.856;12.154;2022-09-09T15:09:29;1.23;;;0.57;;
11443;SDS011;5778;47.856;12.154;2022-09-09T15:11:56;0.70;;;0.60;;
11443;SDS011;5778;47.856;12.154;2022-09-09T15:14:23;1.43;;;0.70;;
11443;SDS011;5778;47.856;12.154;2022-09-09T15:22:36;0.37;;;0.37;;
11443;SDS011;5778;47.856;12.154;2022-09-09T15:25:04;0.30;;;0.30;;
11443;SDS011;5778;47.856;12.154;2022-09-09T15:27:37;0.40;;;0.40;;
11443;SDS011;5778;47.856;12.154;2022-09-09T15:30:04;0.97;;;0.70;;
11443;SDS011;5778;47.856;12.154;2022-09-09T15:32:31;0.60;;;0.50;;
11443;SDS011;5778;47.856;12.154;2022-09-09T15:34:59;0.63;;;0.63;;
11443;SDS011;5778;47.856;12.154;2022-09-09T15:37:32;0.50;;;0.50;;
11443;SDS011;5778;47.856;12.154;2022-09-09T15:40:01;0.63;;;0.40;;
11443;SDS011;5778;47.856;12.154;2022-09-09T15:42:29;1.13;;;0.63;;
11443;SDS011;5778;47.856;12.154;2022-09-09T15:44:56;2.00;;;0.73;;
11443;SDS011;5778;47.856;12.154;2022-09-09T15:47:23;1.03;;;0.50;;
11443;SDS011;5778;47.856;12.154;2022-09-09T15:49:51;1.47;;;0.80;;
11443;SDS011;5778;47.856;12.154;2022-09-09T15:52:18;1.83;;;0.40;;
11443;SDS011;5778;47.856;12.154;2022-09-09T15:54:45;1.97;;;0.50;;
11443;SDS011;5778;47.856;12.154;2022-09-09T16:00:37;0.50;;;0.50;;
11443;SDS011;5778;47.856;12.154;2022-09-09T16:03:04;0.57;;;0.50;;
11443;SDS011;5778;47.856;12.154;2022-09-09T16:05:45;0.47;;;0.47;;
11443;SDS011;5778;47.856;12.154;2022-09-09T16:08:17;0.73;;;0.57;;
11443;SDS011;5778;47.856;12.154;2022-09-09T16:10:44;2.13;;;1.00;;
11443;SDS011;5778;47.856;12.154;2022-09-09T16:13:12;0.70;;;0.70;;
11443;SDS011;5778;47.856;12.154;2022-09-09T16:18:45;0.87;;;0.70;;
11443;SDS011;5778;47.856;12.154;2022-09-09T16:21:13;0.70;;;0.70;;
11443;SDS011;5778;47.856;12.154;2022-09-09T16:23:42;1.23;;;1.13;;
11443;SDS011;5778;47.856;12.154;2022-09-09T16:26:29;0.63;;;0.50;;
11443;SDS011;5778;47.856;12.154;2022-09-09T16:28:58;0.60;;;0.60;;
11443;SDS011;5778;47.856;12.154;2022-09-09T16:31:27;0.73;;;0.73;;
11443;SDS011;5778;47.856;12.154;2022-09-09T16:33:56;0.50;;;0.50;;
11443;SDS011;5778;47.856;12.154;2022-09-09T16:36:23;0.67;;;0.60;;
11443;SDS011;5778;47.856;12.154;2022-09-09T16:38:52;0.60;;;0.60;;
11443;SDS011;5778;47.856;12.154;2022-09-09T16:41:20;1.23;;;0.50;;
11443;SDS011;5778;47.856;12.154;2022-09-09T16:43:52;1.27;;;0.67;;
11443;SDS011;5778;47.856;12.154;2022-09-09T16:49:28;0.60;;;0.60;;
11443;SDS011;5778;47.856;12.154;2022-09-09T16:51:57;0.40;;;0.40;;
11443;SDS011;5778;47.856;12.154;2022-09-09T16:54:25;0.87;;;0.60;;
11443;SDS011;5778;47.856;12.154;2022-09-09T16:56:53;1.50;;;0.50;;
11443;SDS011;5778;47.856;12.154;2022-09-09T16:59:20;0.50;;;0.50;;
11443;SDS011;5778;47.856;12.154;2022-09-09T17:01:49;1.30;;;0.50;;
11443;SDS011;5778;47.856;12.154;2022-09-09T17:04:19;0.60;;;0.60;;
11443;SDS011;5778;47.856;12.154;2022-09-09T17:07:06;0.67;;;0.50;;
11443;SDS011;5778;47.856;12.154;2022-09-09T17:09:33;1.20;;;0.70;;
11443;SDS011;5778;47.856;12.154;2022-09-09T17:12:00;0.43;;;0.43;;
11443;SDS011;5778;47.856;12.154;2022-09-09T17:14:28;1.10;;;0.60;;
11443;SDS011;5778;47.856;12.154;2022-09-09T17:16:58;0.77;;;0.67;;
11443;SDS011;5778;47.856;12.154;2022-09-09T17:19:38;0.50;;;0.50;;
11443;SDS011;5778;47.856;12.154;2022-09-09T17:22:05;0.70;;;0.70;;
11443;SDS011;5778;47.856;12.154;2022-09-09T17:24:32;1.80;;;0.80;;